Frej — SBPT — position and weather

sailwx.info

Track history (hours):
 
Tides and Currents Weather Stations Pressure Air Temp Water Temp Dewpoint Dewpoint Depression Visibility Wind Speed Wind Dir Waves Ship Positions

Frej

Last reported at 2015-Mar-04 11:00 UTC. Time now 2015-Mar-04 12:53 UTC.
Position N 65°24' E 024°06'.

Length 108 m; draft 7 m.

Type: Other ship. MMSI: 265068000.

Wind from 070 at 16 knots

Barometer 1004.4 mb
Air temperature -0.0 ° C

Date/timePositionNaut miles runAvg speedWind from/ knotsBaromVisibWave heightAir tempDewpointWater temp
2015-Mar-04 11:00N 65°24' E 024°06'2 2.5 070 / 161004.4 -0.0
2015-Mar-04 10:00N 65°24' E 024°00'5 2.5 100 / 81004.1 -0.2
2015-Mar-04 08:00N 65°24' E 024°12'2 1.2 120 / 101003.2 -0.0
2015-Mar-04 06:00N 65°24' E 024°06'8 7.8 080 / 81002.7 -0.2
2015-Mar-04 05:00N 65°30' E 024°18'8 2.0 050 / 161002.5 -0.3
2015-Mar-04 01:00N 65°24' E 024°06'0 0.0 080 / 101003.2 -0.0
2015-Mar-03 23:00N 65°24' E 024°06'0 0.0 090 / 101003.6 -0.0
2015-Mar-03 22:00N 65°24' E 024°06'0 0.0 120 / 101003.8 -0.0
2015-Mar-03 21:00N 65°24' E 024°06'5 2.5 110 / 61003.8 -0.0
2015-Mar-03 19:00N 65°24' E 023°54'1515.0 110 / 121003.3 0.6
2015-Mar-03 18:00N 65°24' E 023°18'1515.0 130 / 121002.9 0.5
2015-Mar-03 17:00N 65°24' E 022°42'10 9.6 150 / 191002.1 0.4
2015-Mar-03 16:00N 65°30' E 022°24'8 3.9 170 / 141002.0 0.3
2015-Mar-03 14:00N 65°36' E 022°12'0 0.0 170 / 161001.4 0.6
2015-Mar-03 09:00N 65°36' E 022°12'0 0.0 170 / 14999.4 0.7
2015-Mar-03 07:00N 65°36' E 022°12'8 3.9 170 / 16998.0 0.8
2015-Mar-03 05:00N 65°30' E 022°24'1615.6 160 / 16997.5 0.4
2015-Mar-03 04:00N 65°18' E 022°48'1312.5 160 / 21997.7 0.6
2015-Mar-03 03:00N 65°18' E 023°18'19 9.3 160 / 16997.7 0.5
2015-Mar-03 01:00N 65°12' E 024°00'13 2.5 160 / 17998.0 0.6
2015-Mar-02 20:00N 65°12' E 024°30'1211.7 150 / 17996.7 0.9
2015-Mar-02 19:00N 65°06' E 024°54'12 3.9 160 / 19996.9 0.5
2015-Mar-02 16:00N 65°12' E 024°30'0 0.0 160 / 21996.0 1.6
2015-Mar-02 15:00N 65°12' E 024°30'0 0.0 160 / 21995.4 1.4
2015-Mar-02 14:00N 65°12' E 024°30'0 0.0 160 / 23995.1 1.8
2015-Mar-02 11:00N 65°12' E 024°30'0 0.0 150 / 21995.1 1.6
2015-Mar-02 10:00N 65°12' E 024°30'0 0.0 150 / 21994.9 1.7
2015-Mar-02 09:00N 65°12' E 024°30'0 0.0 150 / 23994.8 1.5
2015-Mar-02 07:00N 65°12' E 024°30'0 0.0 150 / 31995.0 1.2
2015-Mar-02 05:00N 65°12' E 024°30'0 0.0 160 / 25995.0 0.9
2015-Mar-02 04:00N 65°12' E 024°30'8 7.8 150 / 23995.4 1.0
2015-Mar-02 03:00N 65°06' E 024°42'10 4.8 150 / 17996.4 1.0
2015-Mar-02 01:00N 65°12' E 024°24'10 4.8 170 / 14996.9 0.6
2015-Mar-01 23:00N 65°06' E 024°42'0 0.0 160 / 14998.2 0.7
2015-Mar-01 22:00N 65°06' E 024°42'10 4.8 150 / 25997.9 0.3
2015-Mar-01 20:00N 65°12' E 024°24'12 3.9 160 / 21998.2 0.1
2015-Mar-01 17:00N 65°06' E 024°48'10 9.7 160 / 17999.8 1.4
2015-Mar-01 16:00N 65°12' E 024°30'0 0.0 160 / 21999.7 1.9
2015-Mar-01 15:00N 65°12' E 024°30'0 0.0 170 / 25999.6 2.4
2015-Mar-01 14:00N 65°12' E 024°30'0 0.0 170 / 21999.9 2.4
2015-Mar-01 13:00N 65°12' E 024°30'0 0.0 180 / 291000.3 1.9
2015-Mar-01 10:00N 65°12' E 024°30'0 0.0 180 / 271000.3 1.5
2015-Mar-01 06:00N 65°12' E 024°30'0 0.0 180 / 331001.0 0.5
2015-Mar-01 04:00N 65°12' E 024°30'0 0.0 190 / 291001.7 0.3
2015-Mar-01 03:00N 65°12' E 024°30'0 0.0 170 / 231001.9 0.1
2015-Mar-01 02:00N 65°12' E 024°30'0 0.0 170 / 291002.3 0.3
2015-Mar-01 01:00N 65°12' E 024°30'0 0.0 180 / 211002.8 0.4
2015-Feb-28 22:00N 65°12' E 024°30'0 0.0 190 / 251004.0 0.5
2015-Feb-28 19:00N 65°12' E 024°30'12 5.9 190 / 231004.8 0.9
2015-Feb-28 17:00N 65°06' E 024°54'12 3.9 190 / 171005.8 1.5
2015-Feb-28 14:00N 65°12' E 024°30'12 5.9 170 / 171006.7 0.8
2015-Feb-28 12:00N 65°06' E 024°54'10 9.7 170 / 161008.2 0.8
2015-Feb-28 11:00N 65°12' E 024°36'5 1.3 170 / 171008.0 0.5
2015-Feb-28 07:00N 65°12' E 024°24'0 0.0 190 / 291008.3 0.1
2015-Feb-28 05:00N 65°12' E 024°24'0 0.0 190 / 231008.6 -0.2
2015-Feb-28 01:00N 65°12' E 024°24'3 0.4 190 / 191009.5 -0.3
2015-Feb-27 18:00N 65°12' E 024°30'3 0.5 170 / 231012.2 0.1
2015-Feb-27 13:00N 65°12' E 024°24'0 0.0 190 / 211014.8 0.1
2015-Feb-27 12:00N 65°12' E 024°24'0 0.0 180 / 291015.2 0.2
2015-Feb-27 11:00N 65°12' E 024°24'0 0.0 180 / 291015.4 0.2
2015-Feb-27 08:00N 65°12' E 024°24'10 2.4 170 / 331016.0 -0.0
2015-Feb-27 04:00N 65°06' E 024°42'10 1.1 170 / 251016.5 0.5
2015-Feb-26 19:00N 65°12' E 024°24'0 0.0 180 / 251016.8 0.7
2015-Feb-26 14:00N 65°12' E 024°24'0 0.0 190 / 231016.7 0.4
2015-Feb-26 13:00N 65°12' E 024°24'0 0.0 180 / 251016.5 0.7
2015-Feb-26 09:00N 65°12' E 024°24'0 0.0 190 / 191015.4 0.5
2015-Feb-26 07:00N 65°12' E 024°24'0 0.0 190 / 251014.6 0.9
2015-Feb-26 05:00N 65°12' E 024°24'0 0.0 190 / 251013.8 1.0
2015-Feb-26 04:00N 65°12' E 024°24'0 0.0 190 / 311013.5 0.8
2015-Feb-26 03:00N 65°12' E 024°24'0 0.0 180 / 311013.2 0.9
2015-Feb-26 01:00N 65°12' E 024°24'0 0.0 190 / 331013.2 1.1
2015-Feb-25 23:00N 65°12' E 024°24'0 0.0 180 / 291013.1 1.1
2015-Feb-25 22:00N 65°12' E 024°24'0 0.0 180 / 251013.0 1.5
2015-Feb-25 19:00N 65°12' E 024°24'0 0.0 170 / 191012.2 1.2
2015-Feb-25 18:00N 65°12' E 024°24'0 0.0 170 / 161012.3 1.2
2015-Feb-25 15:00N 65°12' E 024°24'0 0.0 170 / 171011.7 1.0
2015-Feb-25 14:00N 65°12' E 024°24'0 0.0 180 / 191011.3 1.1
2015-Feb-25 13:00N 65°12' E 024°24'0 0.0 180 / 161011.0 1.1
2015-Feb-25 11:00N 65°12' E 024°24'0 0.0 180 / 251010.3 1.1
2015-Feb-25 08:00N 65°12' E 024°24'0 0.0 170 / 211008.7 0.6
2015-Feb-25 07:00N 65°12' E 024°24'0 0.0 170 / 211008.1 0.8
2015-Feb-25 06:00N 65°12' E 024°24'0 0.0 180 / 171007.4 0.5
2015-Feb-25 05:00N 65°12' E 024°24'0 0.0 180 / 231006.5 0.6
2015-Feb-25 04:00N 65°12' E 024°24'0 0.0 190 / 171005.9 0.7
2015-Feb-25 03:00N 65°12' E 024°24'0 0.0 180 / 251005.3 0.5
2015-Feb-25 01:00N 65°12' E 024°24'0 0.0 190 / 231003.8 0.2
2015-Feb-24 23:00N 65°12' E 024°24'0 0.0 200 / 231002.7 0.3
2015-Feb-24 19:00N 65°12' E 024°24'0 0.0 190 / 231001.0 0.6
2015-Feb-24 18:00N 65°12' E 024°24'0 0.0 200 / 161000.9 0.5
2015-Feb-24 17:00N 65°12' E 024°24'0 0.0 200 / 17999.9 0.6
2015-Feb-24 15:00N 65°12' E 024°24'0 0.0 210 / 17999.0 0.6
2015-Feb-24 14:00N 65°12' E 024°24'0 0.0 190 / 21998.2 0.8
2015-Feb-24 13:00N 65°12' E 024°24'0 0.0 210 / 17997.6 0.8
2015-Feb-24 11:00N 65°12' E 024°24'7 6.5 190 / 23996.8 0.6
2015-Feb-24 10:00N 65°06' E 024°18'7 6.5 180 / 23995.9 0.3
2015-Feb-24 09:00N 65°12' E 024°24'2713.5 160 / 19995.4 0.6
2015-Feb-24 07:00N 65°30' E 023°36'5 2.5 160 / 29993.4 0.1
2015-Feb-24 05:00N 65°30' E 023°24'0 0.0 170 / 21994.2 -0.2
2015-Feb-24 04:00N 65°30' E 023°24'6 6.0 170 / 16994.5 -0.2
2015-Feb-24 03:00N 65°36' E 023°24'6 3.2 150 / 27994.3 0.2
2015-Feb-24 01:00N 65°42' E 023°30'12 6.1 160 / 27995.8 0.2
2015-Feb-23 23:00N 65°30' E 023°24'0 0.0 160 / 31996.7 0.1
2015-Feb-23 21:00N 65°30' E 023°24'0 0.0 150 / 25997.4 0.2
2015-Feb-23 20:00N 65°30' E 023°24'0 0.0 150 / 29997.4 0.2
2015-Feb-23 19:00N 65°30' E 023°24'0 0.0 160 / 23997.6 0.2
2015-Feb-23 17:00N 65°30' E 023°24'2 1.2 150 / 23997.7 0.1
2015-Feb-23 15:00N 65°30' E 023°18'8 7.8 150 / 19997.9 -0.4
2015-Feb-23 14:00N 65°24' E 023°06'35 6.9 180 / 17997.6 0.5
2015-Feb-23 09:00N 65°12' E 024°24'0 0.0 190 / 12997.0 -0.4
2015-Feb-23 06:00N 65°12' E 024°24'0 0.0 220 / 8995.6 -2.3
2015-Feb-23 05:00N 65°12' E 024°24'0 0.0 210 / 2994.9 -3.8
2015-Feb-23 04:00N 65°12' E 024°24'0 0.0 260 / 2994.0 -5.1
2015-Feb-23 03:00N 65°12' E 024°24'0 0.0 020 / 2992.9 -5.6
2015-Feb-23 02:00N 65°12' E 024°24'0 0.0 280 / 10992.3 -1.9
2015-Feb-23 01:00N 65°12' E 024°24'3 1.3 280 / 14991.5 -1.4
2015-Feb-22 23:00N 65°12' E 024°30'3 2.5 260 / 14990.1 -1.6
2015-Feb-22 22:00N 65°12' E 024°24'0 0.0 270 / 14989.3 -1.0
2015-Feb-22 20:00N 65°12' E 024°24'0 0.0 240 / 17987.7 -1.0
2015-Feb-22 19:00N 65°12' E 024°24'0 0.0 250 / 14987.1 -1.5
2015-Feb-22 17:00N 65°12' E 024°24'0 0.0 230 / 12986.1 -2.0
2015-Feb-22 15:00N 65°12' E 024°24'0 0.0 250 / 10984.8 -0.9
2015-Feb-22 14:00N 65°12' E 024°24'7 6.5 260 / 12984.6 -0.1
2015-Feb-22 13:00N 65°06' E 024°18'8 3.8 210 / 8983.8 -0.1
2015-Feb-22 11:00N 65°06' E 024°00'   220 / 14983.8 -0.2
Track history (hours):
 
Tides and Currents Weather Stations Pressure Air Temp Water Temp Dewpoint Dewpoint Depression Visibility Wind Speed Wind Dir Waves Ship Positions

Frej

Last reported at 2015-Mar-04 11:00 UTC. Time now 2015-Mar-04 12:53 UTC.
Position N 65°24' E 024°06'.

Length 108 m; draft 7 m.

Type: Other ship. MMSI: 265068000.

Wind from 070 at 16 knots

Barometer 1004.4 mb
Air temperature -0.0 ° C

Date/timePositionNaut miles runAvg speedWind from/ knotsBaromVisibWave heightAir tempDewpointWater temp
2015-Mar-04 11:00N 65°24' E 024°06'2 2.5 070 / 161004.4 -0.0
2015-Mar-04 10:00N 65°24' E 024°00'5 2.5 100 / 81004.1 -0.2
2015-Mar-04 08:00N 65°24' E 024°12'2 1.2 120 / 101003.2 -0.0
2015-Mar-04 06:00N 65°24' E 024°06'8 7.8 080 / 81002.7 -0.2
2015-Mar-04 05:00N 65°30' E 024°18'8 2.0 050 / 161002.5 -0.3
2015-Mar-04 01:00N 65°24' E 024°06'0 0.0 080 / 101003.2 -0.0
2015-Mar-03 23:00N 65°24' E 024°06'0 0.0 090 / 101003.6 -0.0
2015-Mar-03 22:00N 65°24' E 024°06'0 0.0 120 / 101003.8 -0.0
2015-Mar-03 21:00N 65°24' E 024°06'5 2.5 110 / 61003.8 -0.0
2015-Mar-03 19:00N 65°24' E 023°54'1515.0 110 / 121003.3 0.6
2015-Mar-03 18:00N 65°24' E 023°18'1515.0 130 / 121002.9 0.5
2015-Mar-03 17:00N 65°24' E 022°42'10 9.6 150 / 191002.1 0.4
2015-Mar-03 16:00N 65°30' E 022°24'8 3.9 170 / 141002.0 0.3
2015-Mar-03 14:00N 65°36' E 022°12'0 0.0 170 / 161001.4 0.6
2015-Mar-03 09:00N 65°36' E 022°12'0 0.0 170 / 14999.4 0.7
2015-Mar-03 07:00N 65°36' E 022°12'8 3.9 170 / 16998.0 0.8
2015-Mar-03 05:00N 65°30' E 022°24'1615.6 160 / 16997.5 0.4
2015-Mar-03 04:00N 65°18' E 022°48'1312.5 160 / 21997.7 0.6
2015-Mar-03 03:00N 65°18' E 023°18'19 9.3 160 / 16997.7 0.5
2015-Mar-03 01:00N 65°12' E 024°00'13 2.5 160 / 17998.0 0.6
2015-Mar-02 20:00N 65°12' E 024°30'1211.7 150 / 17996.7 0.9
2015-Mar-02 19:00N 65°06' E 024°54'12 3.9 160 / 19996.9 0.5
2015-Mar-02 16:00N 65°12' E 024°30'0 0.0 160 / 21996.0 1.6
2015-Mar-02 15:00N 65°12' E 024°30'0 0.0 160 / 21995.4 1.4
2015-Mar-02 14:00N 65°12' E 024°30'0 0.0 160 / 23995.1 1.8
2015-Mar-02 11:00N 65°12' E 024°30'0 0.0 150 / 21995.1 1.6
2015-Mar-02 10:00N 65°12' E 024°30'0 0.0 150 / 21994.9 1.7
2015-Mar-02 09:00N 65°12' E 024°30'0 0.0 150 / 23994.8 1.5
2015-Mar-02 07:00N 65°12' E 024°30'0 0.0 150 / 31995.0 1.2
2015-Mar-02 05:00N 65°12' E 024°30'0 0.0 160 / 25995.0 0.9
2015-Mar-02 04:00N 65°12' E 024°30'8 7.8 150 / 23995.4 1.0
2015-Mar-02 03:00N 65°06' E 024°42'10 4.8 150 / 17996.4 1.0
2015-Mar-02 01:00N 65°12' E 024°24'10 4.8 170 / 14996.9 0.6
2015-Mar-01 23:00N 65°06' E 024°42'0 0.0 160 / 14998.2 0.7
2015-Mar-01 22:00N 65°06' E 024°42'10 4.8 150 / 25997.9 0.3
2015-Mar-01 20:00N 65°12' E 024°24'12 3.9 160 / 21998.2 0.1
2015-Mar-01 17:00N 65°06' E 024°48'10 9.7 160 / 17999.8 1.4
2015-Mar-01 16:00N 65°12' E 024°30'0 0.0 160 / 21999.7 1.9
2015-Mar-01 15:00N 65°12' E 024°30'0 0.0 170 / 25999.6 2.4
2015-Mar-01 14:00N 65°12' E 024°30'0 0.0 170 / 21999.9 2.4
2015-Mar-01 13:00N 65°12' E 024°30'0 0.0 180 / 291000.3 1.9
2015-Mar-01 10:00N 65°12' E 024°30'0 0.0 180 / 271000.3 1.5
2015-Mar-01 06:00N 65°12' E 024°30'0 0.0 180 / 331001.0 0.5
2015-Mar-01 04:00N 65°12' E 024°30'0 0.0 190 / 291001.7 0.3
2015-Mar-01 03:00N 65°12' E 024°30'0 0.0 170 / 231001.9 0.1
2015-Mar-01 02:00N 65°12' E 024°30'0 0.0 170 / 291002.3 0.3
2015-Mar-01 01:00N 65°12' E 024°30'0 0.0 180 / 211002.8 0.4
2015-Feb-28 22:00N 65°12' E 024°30'0 0.0 190 / 251004.0 0.5
2015-Feb-28 19:00N 65°12' E 024°30'12 5.9 190 / 231004.8 0.9
2015-Feb-28 17:00N 65°06' E 024°54'12 3.9 190 / 171005.8 1.5
2015-Feb-28 14:00N 65°12' E 024°30'12 5.9 170 / 171006.7 0.8
2015-Feb-28 12:00N 65°06' E 024°54'10 9.7 170 / 161008.2 0.8
2015-Feb-28 11:00N 65°12' E 024°36'5 1.3 170 / 171008.0 0.5
2015-Feb-28 07:00N 65°12' E 024°24'0 0.0 190 / 291008.3 0.1
2015-Feb-28 05:00N 65°12' E 024°24'0 0.0 190 / 231008.6 -0.2
2015-Feb-28 01:00N 65°12' E 024°24'3 0.4 190 / 191009.5 -0.3
2015-Feb-27 18:00N 65°12' E 024°30'3 0.5 170 / 231012.2 0.1
2015-Feb-27 13:00N 65°12' E 024°24'0 0.0 190 / 211014.8 0.1
2015-Feb-27 12:00N 65°12' E 024°24'0 0.0 180 / 291015.2 0.2
2015-Feb-27 11:00N 65°12' E 024°24'0 0.0 180 / 291015.4 0.2
2015-Feb-27 08:00N 65°12' E 024°24'10 2.4 170 / 331016.0 -0.0
2015-Feb-27 04:00N 65°06' E 024°42'10 1.1 170 / 251016.5 0.5
2015-Feb-26 19:00N 65°12' E 024°24'0 0.0 180 / 251016.8 0.7
2015-Feb-26 14:00N 65°12' E 024°24'0 0.0 190 / 231016.7 0.4
2015-Feb-26 13:00N 65°12' E 024°24'0 0.0 180 / 251016.5 0.7
2015-Feb-26 09:00N 65°12' E 024°24'0 0.0 190 / 191015.4 0.5
2015-Feb-26 07:00N 65°12' E 024°24'0 0.0 190 / 251014.6 0.9
2015-Feb-26 05:00N 65°12' E 024°24'0 0.0 190 / 251013.8 1.0
2015-Feb-26 04:00N 65°12' E 024°24'0 0.0 190 / 311013.5 0.8
2015-Feb-26 03:00N 65°12' E 024°24'0 0.0 180 / 311013.2 0.9
2015-Feb-26 01:00N 65°12' E 024°24'0 0.0 190 / 331013.2 1.1
2015-Feb-25 23:00N 65°12' E 024°24'0 0.0 180 / 291013.1 1.1
2015-Feb-25 22:00N 65°12' E 024°24'0 0.0 180 / 251013.0 1.5
2015-Feb-25 19:00N 65°12' E 024°24'0 0.0 170 / 191012.2 1.2
2015-Feb-25 18:00N 65°12' E 024°24'0 0.0 170 / 161012.3 1.2
2015-Feb-25 15:00N 65°12' E 024°24'0 0.0 170 / 171011.7 1.0
2015-Feb-25 14:00N 65°12' E 024°24'0 0.0 180 / 191011.3 1.1
2015-Feb-25 13:00N 65°12' E 024°24'0 0.0 180 / 161011.0 1.1
2015-Feb-25 11:00N 65°12' E 024°24'0 0.0 180 / 251010.3 1.1
2015-Feb-25 08:00N 65°12' E 024°24'0 0.0 170 / 211008.7 0.6
2015-Feb-25 07:00N 65°12' E 024°24'0 0.0 170 / 211008.1 0.8
2015-Feb-25 06:00N 65°12' E 024°24'0 0.0 180 / 171007.4 0.5
2015-Feb-25 05:00N 65°12' E 024°24'0 0.0 180 / 231006.5 0.6
2015-Feb-25 04:00N 65°12' E 024°24'0 0.0 190 / 171005.9 0.7
2015-Feb-25 03:00N 65°12' E 024°24'0 0.0 180 / 251005.3 0.5
2015-Feb-25 01:00N 65°12' E 024°24'0 0.0 190 / 231003.8 0.2
2015-Feb-24 23:00N 65°12' E 024°24'0 0.0 200 / 231002.7 0.3
2015-Feb-24 19:00N 65°12' E 024°24'0 0.0 190 / 231001.0 0.6
2015-Feb-24 18:00N 65°12' E 024°24'0 0.0 200 / 161000.9 0.5
2015-Feb-24 17:00N 65°12' E 024°24'0 0.0 200 / 17999.9 0.6
2015-Feb-24 15:00N 65°12' E 024°24'0 0.0 210 / 17999.0 0.6
2015-Feb-24 14:00N 65°12' E 024°24'0 0.0 190 / 21998.2 0.8
2015-Feb-24 13:00N 65°12' E 024°24'0 0.0 210 / 17997.6 0.8
2015-Feb-24 11:00N 65°12' E 024°24'7 6.5 190 / 23996.8 0.6
2015-Feb-24 10:00N 65°06' E 024°18'7 6.5 180 / 23995.9 0.3
2015-Feb-24 09:00N 65°12' E 024°24'2713.5 160 / 19995.4 0.6
2015-Feb-24 07:00N 65°30' E 023°36'5 2.5 160 / 29993.4 0.1
2015-Feb-24 05:00N 65°30' E 023°24'0 0.0 170 / 21994.2 -0.2
2015-Feb-24 04:00N 65°30' E 023°24'6 6.0 170 / 16994.5 -0.2
2015-Feb-24 03:00N 65°36' E 023°24'6 3.2 150 / 27994.3 0.2
2015-Feb-24 01:00N 65°42' E 023°30'12 6.1 160 / 27995.8 0.2
2015-Feb-23 23:00N 65°30' E 023°24'0 0.0 160 / 31996.7 0.1
2015-Feb-23 21:00N 65°30' E 023°24'0 0.0 150 / 25997.4 0.2
2015-Feb-23 20:00N 65°30' E 023°24'0 0.0 150 / 29997.4 0.2
2015-Feb-23 19:00N 65°30' E 023°24'0 0.0 160 / 23997.6 0.2
2015-Feb-23 17:00N 65°30' E 023°24'2 1.2 150 / 23997.7 0.1
2015-Feb-23 15:00N 65°30' E 023°18'8 7.8 150 / 19997.9 -0.4
2015-Feb-23 14:00N 65°24' E 023°06'35 6.9 180 / 17997.6 0.5
2015-Feb-23 09:00N 65°12' E 024°24'0 0.0 190 / 12997.0 -0.4
2015-Feb-23 06:00N 65°12' E 024°24'0 0.0 220 / 8995.6 -2.3
2015-Feb-23 05:00N 65°12' E 024°24'0 0.0 210 / 2994.9 -3.8
2015-Feb-23 04:00N 65°12' E 024°24'0 0.0 260 / 2994.0 -5.1
2015-Feb-23 03:00N 65°12' E 024°24'0 0.0 020 / 2992.9 -5.6
2015-Feb-23 02:00N 65°12' E 024°24'0 0.0 280 / 10992.3 -1.9
2015-Feb-23 01:00N 65°12' E 024°24'3 1.3 280 / 14991.5 -1.4
2015-Feb-22 23:00N 65°12' E 024°30'3 2.5 260 / 14990.1 -1.6
2015-Feb-22 22:00N 65°12' E 024°24'0 0.0 270 / 14989.3 -1.0
2015-Feb-22 20:00N 65°12' E 024°24'0 0.0 240 / 17987.7 -1.0
2015-Feb-22 19:00N 65°12' E 024°24'0 0.0 250 / 14987.1 -1.5
2015-Feb-22 17:00N 65°12' E 024°24'0 0.0 230 / 12986.1 -2.0
2015-Feb-22 15:00N 65°12' E 024°24'0 0.0 250 / 10984.8 -0.9
2015-Feb-22 14:00N 65°12' E 024°24'7 6.5 260 / 12984.6 -0.1
2015-Feb-22 13:00N 65°06' E 024°18'8 3.8 210 / 8983.8 -0.1
2015-Feb-22 11:00N 65°06' E 024°00'   220 / 14983.8 -0.2

Dump ship's entire track history